Laurelville, Pennsylvania
Current Conditions -  °F | °C
As of 6:53 PM on Sunday 21 Dec 2014 (Local Time) from KLNS Reporting Station
Clear Clear  
Wind Chill: 29°   Ceiling: Unl
Heat Index: 29°   Visibility: 10mi
Dew Point: 21°   Wind: 3mph
Humidity: 72%   Direction: 300°WNW
Pressure: 30.33"   Gusts: NA
Location:  40.1038°N, 76.0725°W
Report Text: KLNS 212353Z 30003KT 10SM CLR M02/M06 A3033 RMK AO2 SLP275 T10171061 10017 21022 53012
Loading
Personal Weather Stations






























Interactive Weather Map New forecast layout! Learn more

10-Day Weather Forecast

Advertisements
Track Severe Weather on mobile